sensor_id;sensor_type;location;lat;lon;timestamp;P1;durP1;ratioP1;P2;durP2;ratioP2
82387;SDS011;72027;47.420;9.310;2024-01-30T00:01:29;2.78;;;1.38;;
82387;SDS011;72027;47.420;9.310;2024-01-30T00:03:57;2.72;;;1.48;;
82387;SDS011;72027;47.420;9.310;2024-01-30T00:06:25;2.05;;;1.13;;
82387;SDS011;72027;47.420;9.310;2024-01-30T00:08:52;1.58;;;1.05;;
82387;SDS011;72027;47.420;9.310;2024-01-30T00:11:22;1.67;;;1.30;;
82387;SDS011;72027;47.420;9.310;2024-01-30T00:13:51;1.17;;;1.05;;
82387;SDS011;72027;47.420;9.310;2024-01-30T00:16:20;1.52;;;1.08;;
82387;SDS011;72027;47.420;9.310;2024-01-30T00:18:48;1.60;;;1.25;;
82387;SDS011;72027;47.420;9.310;2024-01-30T00:21:16;4.45;;;1.98;;
82387;SDS011;72027;47.420;9.310;2024-01-30T00:23:44;1.60;;;1.23;;
82387;SDS011;72027;47.420;9.310;2024-01-30T00:26:11;1.75;;;1.08;;
82387;SDS011;72027;47.420;9.310;2024-01-30T00:28:42;2.05;;;1.42;;
82387;SDS011;72027;47.420;9.310;2024-01-30T00:31:10;2.50;;;1.05;;
82387;SDS011;72027;47.420;9.310;2024-01-30T00:33:38;1.70;;;1.10;;
82387;SDS011;72027;47.420;9.310;2024-01-30T00:36:07;1.48;;;1.20;;
82387;SDS011;72027;47.420;9.310;2024-01-30T00:38:36;1.75;;;1.30;;
82387;SDS011;72027;47.420;9.310;2024-01-30T00:41:04;1.92;;;1.52;;
82387;SDS011;72027;47.420;9.310;2024-01-30T00:43:32;1.65;;;1.15;;
82387;SDS011;72027;47.420;9.310;2024-01-30T00:46:01;6.95;;;1.75;;
82387;SDS011;72027;47.420;9.310;2024-01-30T00:48:29;1.85;;;1.20;;
82387;SDS011;72027;47.420;9.310;2024-01-30T00:50:57;3.05;;;1.30;;
82387;SDS011;72027;47.420;9.310;2024-01-30T00:53:26;2.42;;;1.50;;
82387;SDS011;72027;47.420;9.310;2024-01-30T00:55:53;3.35;;;2.60;;
82387;SDS011;72027;47.420;9.310;2024-01-30T00:58:21;3.28;;;1.27;;
82387;SDS011;72027;47.420;9.310;2024-01-30T01:00:49;1.30;;;0.95;;
82387;SDS011;72027;47.420;9.310;2024-01-30T01:03:18;1.45;;;0.77;;
82387;SDS011;72027;47.420;9.310;2024-01-30T01:05:46;1.70;;;1.60;;
82387;SDS011;72027;47.420;9.310;2024-01-30T01:08:14;2.25;;;1.50;;
82387;SDS011;72027;47.420;9.310;2024-01-30T01:10:42;3.28;;;1.92;;
82387;SDS011;72027;47.420;9.310;2024-01-30T01:13:10;2.40;;;1.25;;
82387;SDS011;72027;47.420;9.310;2024-01-30T01:15:37;3.08;;;1.23;;
82387;SDS011;72027;47.420;9.310;2024-01-30T01:18:05;3.28;;;1.60;;
82387;SDS011;72027;47.420;9.310;2024-01-30T01:20:34;1.30;;;1.00;;
82387;SDS011;72027;47.420;9.310;2024-01-30T01:23:02;2.67;;;1.50;;
82387;SDS011;72027;47.420;9.310;2024-01-30T01:25:30;2.38;;;1.13;;
82387;SDS011;72027;47.420;9.310;2024-01-30T01:27:58;4.15;;;1.48;;
82387;SDS011;72027;47.420;9.310;2024-01-30T01:30:27;2.78;;;1.50;;
82387;SDS011;72027;47.420;9.310;2024-01-30T01:32:55;2.80;;;1.50;;
82387;SDS011;72027;47.420;9.310;2024-01-30T01:35:26;1.90;;;1.65;;
82387;SDS011;72027;47.420;9.310;2024-01-30T01:37:55;2.45;;;1.13;;
82387;SDS011;72027;47.420;9.310;2024-01-30T01:40:25;2.08;;;1.27;;
82387;SDS011;72027;47.420;9.310;2024-01-30T01:42:54;2.80;;;1.33;;
82387;SDS011;72027;47.420;9.310;2024-01-30T01:45:23;2.42;;;1.70;;
82387;SDS011;72027;47.420;9.310;2024-01-30T01:47:51;6.97;;;1.42;;
82387;SDS011;72027;47.420;9.310;2024-01-30T01:50:19;1.35;;;0.90;;
82387;SDS011;72027;47.420;9.310;2024-01-30T01:52:49;2.92;;;1.63;;
82387;SDS011;72027;47.420;9.310;2024-01-30T01:55:19;1.38;;;0.93;;
82387;SDS011;72027;47.420;9.310;2024-01-30T01:57:50;1.58;;;1.20;;
82387;SDS011;72027;47.420;9.310;2024-01-30T02:00:20;1.35;;;1.10;;
82387;SDS011;72027;47.420;9.310;2024-01-30T02:02:48;1.85;;;1.10;;
82387;SDS011;72027;47.420;9.310;2024-01-30T02:05:17;1.63;;;0.90;;
82387;SDS011;72027;47.420;9.310;2024-01-30T02:07:45;1.33;;;0.80;;
82387;SDS011;72027;47.420;9.310;2024-01-30T02:10:14;0.98;;;0.90;;
82387;SDS011;72027;47.420;9.310;2024-01-30T02:12:43;2.70;;;1.30;;
82387;SDS011;72027;47.420;9.310;2024-01-30T02:15:13;3.05;;;1.10;;
82387;SDS011;72027;47.420;9.310;2024-01-30T02:17:41;1.70;;;0.90;;
82387;SDS011;72027;47.420;9.310;2024-01-30T02:20:09;1.48;;;0.93;;
82387;SDS011;72027;47.420;9.310;2024-01-30T02:22:39;2.17;;;0.93;;
82387;SDS011;72027;47.420;9.310;2024-01-30T02:25:08;1.20;;;1.08;;
82387;SDS011;72027;47.420;9.310;2024-01-30T02:27:35;0.90;;;0.70;;
82387;SDS011;72027;47.420;9.310;2024-01-30T02:30:04;1.70;;;1.20;;
82387;SDS011;72027;47.420;9.310;2024-01-30T02:32:32;2.60;;;1.40;;
82387;SDS011;72027;47.420;9.310;2024-01-30T02:35:00;1.75;;;1.15;;
82387;SDS011;72027;47.420;9.310;2024-01-30T02:37:28;2.55;;;1.05;;
82387;SDS011;72027;47.420;9.310;2024-01-30T02:39:57;1.33;;;1.02;;
82387;SDS011;72027;47.420;9.310;2024-01-30T02:42:25;1.88;;;1.20;;
82387;SDS011;72027;47.420;9.310;2024-01-30T02:44:52;1.77;;;1.20;;
82387;SDS011;72027;47.420;9.310;2024-01-30T02:47:20;4.82;;;1.33;;
82387;SDS011;72027;47.420;9.310;2024-01-30T02:49:48;1.50;;;1.40;;
82387;SDS011;72027;47.420;9.310;2024-01-30T02:52:18;1.40;;;0.88;;
82387;SDS011;72027;47.420;9.310;2024-01-30T02:54:46;1.50;;;1.40;;
82387;SDS011;72027;47.420;9.310;2024-01-30T02:57:15;2.63;;;1.30;;
82387;SDS011;72027;47.420;9.310;2024-01-30T02:59:43;1.25;;;1.15;;
82387;SDS011;72027;47.420;9.310;2024-01-30T03:02:11;1.33;;;0.90;;
82387;SDS011;72027;47.420;9.310;2024-01-30T03:04:40;1.48;;;1.00;;
82387;SDS011;72027;47.420;9.310;2024-01-30T03:07:08;2.28;;;0.95;;
82387;SDS011;72027;47.420;9.310;2024-01-30T03:09:36;1.45;;;1.33;;
82387;SDS011;72027;47.420;9.310;2024-01-30T03:12:04;1.63;;;0.98;;
82387;SDS011;72027;47.420;9.310;2024-01-30T03:14:37;1.63;;;1.13;;
82387;SDS011;72027;47.420;9.310;2024-01-30T03:17:04;2.13;;;1.30;;
82387;SDS011;72027;47.420;9.310;2024-01-30T03:19:32;4.90;;;1.30;;
82387;SDS011;72027;47.420;9.310;2024-01-30T03:22:00;2.40;;;1.20;;
82387;SDS011;72027;47.420;9.310;2024-01-30T03:24:28;2.88;;;1.15;;
82387;SDS011;72027;47.420;9.310;2024-01-30T03:26:55;4.20;;;1.70;;
82387;SDS011;72027;47.420;9.310;2024-01-30T03:29:23;2.65;;;1.50;;
82387;SDS011;72027;47.420;9.310;2024-01-30T03:31:52;1.88;;;1.10;;
82387;SDS011;72027;47.420;9.310;2024-01-30T03:34:20;2.30;;;1.35;;
82387;SDS011;72027;47.420;9.310;2024-01-30T03:36:48;1.98;;;1.15;;
82387;SDS011;72027;47.420;9.310;2024-01-30T03:39:16;2.55;;;1.33;;
82387;SDS011;72027;47.420;9.310;2024-01-30T03:41:44;1.95;;;1.30;;
82387;SDS011;72027;47.420;9.310;2024-01-30T03:44:12;4.70;;;2.88;;
82387;SDS011;72027;47.420;9.310;2024-01-30T03:46:39;1.13;;;0.82;;
82387;SDS011;72027;47.420;9.310;2024-01-30T03:49:09;2.90;;;1.30;;
82387;SDS011;72027;47.420;9.310;2024-01-30T03:51:37;1.40;;;0.75;;
82387;SDS011;72027;47.420;9.310;2024-01-30T03:54:05;1.20;;;0.98;;
82387;SDS011;72027;47.420;9.310;2024-01-30T03:56:33;1.80;;;1.20;;
82387;SDS011;72027;47.420;9.310;2024-01-30T03:59:01;2.38;;;1.02;;
82387;SDS011;72027;47.420;9.310;2024-01-30T04:01:29;3.35;;;1.98;;
82387;SDS011;72027;47.420;9.310;2024-01-30T04:03:57;2.75;;;1.40;;
82387;SDS011;72027;47.420;9.310;2024-01-30T04:06:26;1.55;;;1.05;;
82387;SDS011;72027;47.420;9.310;2024-01-30T04:08:53;1.75;;;0.98;;
82387;SDS011;72027;47.420;9.310;2024-01-30T04:11:21;3.15;;;1.45;;
82387;SDS011;72027;47.420;9.310;2024-01-30T04:13:49;1.60;;;1.00;;
82387;SDS011;72027;47.420;9.310;2024-01-30T04:16:20;1.80;;;1.38;;
82387;SDS011;72027;47.420;9.310;2024-01-30T04:18:49;2.92;;;1.80;;
82387;SDS011;72027;47.420;9.310;2024-01-30T04:21:16;3.97;;;1.52;;
82387;SDS011;72027;47.420;9.310;2024-01-30T04:23:45;3.72;;;1.55;;
82387;SDS011;72027;47.420;9.310;2024-01-30T04:26:14;1.73;;;1.02;;
82387;SDS011;72027;47.420;9.310;2024-01-30T04:28:42;2.90;;;1.38;;
82387;SDS011;72027;47.420;9.310;2024-01-30T04:31:11;4.10;;;1.17;;
82387;SDS011;72027;47.420;9.310;2024-01-30T04:33:39;4.75;;;1.10;;
82387;SDS011;72027;47.420;9.310;2024-01-30T04:36:08;2.00;;;1.33;;
82387;SDS011;72027;47.420;9.310;2024-01-30T04:38:36;2.00;;;1.10;;
82387;SDS011;72027;47.420;9.310;2024-01-30T04:41:06;1.33;;;1.10;;
82387;SDS011;72027;47.420;9.310;2024-01-30T04:43:34;1.30;;;1.20;;
82387;SDS011;72027;47.420;9.310;2024-01-30T04:46:02;3.80;;;0.95;;
82387;SDS011;72027;47.420;9.310;2024-01-30T04:48:30;1.33;;;1.05;;
82387;SDS011;72027;47.420;9.310;2024-01-30T04:50:58;4.28;;;0.85;;
82387;SDS011;72027;47.420;9.310;2024-01-30T04:53:27;1.88;;;1.35;;
82387;SDS011;72027;47.420;9.310;2024-01-30T04:55:55;1.65;;;1.42;;
82387;SDS011;72027;47.420;9.310;2024-01-30T04:58:24;2.33;;;0.90;;
82387;SDS011;72027;47.420;9.310;2024-01-30T05:00:52;2.85;;;1.20;;
82387;SDS011;72027;47.420;9.310;2024-01-30T05:03:20;1.60;;;1.30;;
82387;SDS011;72027;47.420;9.310;2024-01-30T05:05:49;4.40;;;1.45;;
82387;SDS011;72027;47.420;9.310;2024-01-30T05:08:16;4.70;;;1.40;;
82387;SDS011;72027;47.420;9.310;2024-01-30T05:10:44;2.92;;;1.20;;
82387;SDS011;72027;47.420;9.310;2024-01-30T05:13:12;3.55;;;2.53;;
82387;SDS011;72027;47.420;9.310;2024-01-30T05:15:42;1.73;;;1.10;;
82387;SDS011;72027;47.420;9.310;2024-01-30T05:18:09;2.20;;;1.00;;
82387;SDS011;72027;47.420;9.310;2024-01-30T05:20:37;2.70;;;1.30;;
82387;SDS011;72027;47.420;9.310;2024-01-30T05:23:05;1.23;;;1.00;;
82387;SDS011;72027;47.420;9.310;2024-01-30T05:25:32;4.93;;;1.35;;
82387;SDS011;72027;47.420;9.310;2024-01-30T05:28:00;1.77;;;1.27;;
82387;SDS011;72027;47.420;9.310;2024-01-30T05:30:28;4.50;;;1.25;;
82387;SDS011;72027;47.420;9.310;2024-01-30T05:32:57;3.30;;;1.20;;
82387;SDS011;72027;47.420;9.310;2024-01-30T05:35:25;5.10;;;1.92;;
82387;SDS011;72027;47.420;9.310;2024-01-30T05:37:53;0.77;;;0.77;;
82387;SDS011;72027;47.420;9.310;2024-01-30T05:40:20;2.33;;;1.15;;
82387;SDS011;72027;47.420;9.310;2024-01-30T05:42:48;2.38;;;1.13;;
82387;SDS011;72027;47.420;9.310;2024-01-30T05:45:16;2.40;;;1.30;;
82387;SDS011;72027;47.420;9.310;2024-01-30T05:47:44;1.90;;;0.90;;
82387;SDS011;72027;47.420;9.310;2024-01-30T05:50:13;3.10;;;1.20;;
82387;SDS011;72027;47.420;9.310;2024-01-30T05:52:41;1.95;;;0.80;;
82387;SDS011;72027;47.420;9.310;2024-01-30T05:55:09;1.90;;;0.90;;
82387;SDS011;72027;47.420;9.310;2024-01-30T05:57:38;2.17;;;1.40;;
82387;SDS011;72027;47.420;9.310;2024-01-30T06:00:06;2.80;;;1.48;;
82387;SDS011;72027;47.420;9.310;2024-01-30T06:02:35;2.15;;;1.42;;
82387;SDS011;72027;47.420;9.310;2024-01-30T06:05:03;3.30;;;1.13;;
82387;SDS011;72027;47.420;9.310;2024-01-30T06:07:32;3.30;;;1.40;;
82387;SDS011;72027;47.420;9.310;2024-01-30T06:10:02;2.72;;;1.17;;
82387;SDS011;72027;47.420;9.310;2024-01-30T06:12:30;1.63;;;1.10;;
82387;SDS011;72027;47.420;9.310;2024-01-30T06:14:58;4.80;;;2.03;;
82387;SDS011;72027;47.420;9.310;2024-01-30T06:17:25;3.47;;;1.90;;
82387;SDS011;72027;47.420;9.310;2024-01-30T06:19:53;3.33;;;1.73;;
82387;SDS011;72027;47.420;9.310;2024-01-30T06:22:21;3.25;;;1.70;;
82387;SDS011;72027;47.420;9.310;2024-01-30T06:24:51;4.38;;;2.20;;
82387;SDS011;72027;47.420;9.310;2024-01-30T06:27:18;6.88;;;3.72;;
82387;SDS011;72027;47.420;9.310;2024-01-30T06:29:46;4.53;;;2.65;;
82387;SDS011;72027;47.420;9.310;2024-01-30T06:32:14;3.78;;;2.42;;
82387;SDS011;72027;47.420;9.310;2024-01-30T06:34:41;3.22;;;1.90;;
82387;SDS011;72027;47.420;9.310;2024-01-30T06:37:10;3.95;;;2.30;;
82387;SDS011;72027;47.420;9.310;2024-01-30T06:39:38;2.50;;;1.60;;
82387;SDS011;72027;47.420;9.310;2024-01-30T06:42:07;4.95;;;1.90;;
82387;SDS011;72027;47.420;9.310;2024-01-30T06:44:35;3.90;;;1.88;;
82387;SDS011;72027;47.420;9.310;2024-01-30T06:47:03;1.75;;;1.48;;
82387;SDS011;72027;47.420;9.310;2024-01-30T06:49:31;2.90;;;1.35;;
82387;SDS011;72027;47.420;9.310;2024-01-30T06:51:59;3.45;;;1.95;;
82387;SDS011;72027;47.420;9.310;2024-01-30T06:54:27;3.90;;;1.60;;
82387;SDS011;72027;47.420;9.310;2024-01-30T06:56:54;2.65;;;1.30;;
82387;SDS011;72027;47.420;9.310;2024-01-30T06:59:23;2.70;;;1.52;;
82387;SDS011;72027;47.420;9.310;2024-01-30T07:01:51;2.17;;;1.60;;
82387;SDS011;72027;47.420;9.310;2024-01-30T07:04:19;5.07;;;2.30;;
82387;SDS011;72027;47.420;9.310;2024-01-30T07:06:47;5.40;;;2.17;;
82387;SDS011;72027;47.420;9.310;2024-01-30T07:09:15;6.75;;;1.35;;
82387;SDS011;72027;47.420;9.310;2024-01-30T07:11:42;4.95;;;1.83;;
82387;SDS011;72027;47.420;9.310;2024-01-30T07:14:10;3.92;;;1.90;;
82387;SDS011;72027;47.420;9.310;2024-01-30T07:16:39;4.25;;;2.15;;
82387;SDS011;72027;47.420;9.310;2024-01-30T07:19:07;5.28;;;2.03;;
82387;SDS011;72027;47.420;9.310;2024-01-30T07:21:35;6.80;;;2.40;;
82387;SDS011;72027;47.420;9.310;2024-01-30T07:24:03;7.03;;;2.58;;
82387;SDS011;72027;47.420;9.310;2024-01-30T07:26:31;6.65;;;2.55;;
82387;SDS011;72027;47.420;9.310;2024-01-30T07:28:59;5.70;;;3.00;;
82387;SDS011;72027;47.420;9.310;2024-01-30T07:31:27;5.38;;;2.42;;
82387;SDS011;72027;47.420;9.310;2024-01-30T07:33:57;3.38;;;2.17;;
82387;SDS011;72027;47.420;9.310;2024-01-30T07:36:25;4.38;;;2.80;;
82387;SDS011;72027;47.420;9.310;2024-01-30T07:38:53;4.50;;;2.25;;
82387;SDS011;72027;47.420;9.310;2024-01-30T07:41:21;6.10;;;2.38;;
82387;SDS011;72027;47.420;9.310;2024-01-30T07:43:49;4.65;;;2.60;;
82387;SDS011;72027;47.420;9.310;2024-01-30T07:46:17;6.78;;;3.17;;
82387;SDS011;72027;47.420;9.310;2024-01-30T07:48:44;4.93;;;3.15;;
82387;SDS011;72027;47.420;9.310;2024-01-30T07:51:14;8.32;;;3.03;;
82387;SDS011;72027;47.420;9.310;2024-01-30T07:53:41;6.22;;;3.05;;
82387;SDS011;72027;47.420;9.310;2024-01-30T07:56:10;6.13;;;2.72;;
82387;SDS011;72027;47.420;9.310;2024-01-30T07:58:39;5.03;;;2.90;;
82387;SDS011;72027;47.420;9.310;2024-01-30T08:01:07;5.75;;;2.45;;
82387;SDS011;72027;47.420;9.310;2024-01-30T08:03:34;3.67;;;2.63;;
82387;SDS011;72027;47.420;9.310;2024-01-30T08:06:03;4.55;;;2.55;;
82387;SDS011;72027;47.420;9.310;2024-01-30T08:08:32;7.03;;;3.25;;
82387;SDS011;72027;47.420;9.310;2024-01-30T08:11:00;7.03;;;2.90;;
82387;SDS011;72027;47.420;9.310;2024-01-30T08:13:28;4.20;;;2.67;;
82387;SDS011;72027;47.420;9.310;2024-01-30T08:15:56;8.10;;;2.63;;
82387;SDS011;72027;47.420;9.310;2024-01-30T08:18:23;5.72;;;3.15;;
82387;SDS011;72027;47.420;9.310;2024-01-30T08:20:51;6.20;;;2.78;;
82387;SDS011;72027;47.420;9.310;2024-01-30T08:23:19;5.25;;;2.92;;
82387;SDS011;72027;47.420;9.310;2024-01-30T08:25:48;5.75;;;3.38;;
82387;SDS011;72027;47.420;9.310;2024-01-30T08:28:16;6.50;;;3.08;;
82387;SDS011;72027;47.420;9.310;2024-01-30T08:30:45;4.70;;;2.75;;
82387;SDS011;72027;47.420;9.310;2024-01-30T08:33:13;8.55;;;2.95;;
82387;SDS011;72027;47.420;9.310;2024-01-30T08:35:41;5.72;;;2.97;;
82387;SDS011;72027;47.420;9.310;2024-01-30T08:38:08;6.03;;;3.30;;
82387;SDS011;72027;47.420;9.310;2024-01-30T08:40:38;5.20;;;2.83;;
82387;SDS011;72027;47.420;9.310;2024-01-30T08:43:07;4.32;;;2.83;;
82387;SDS011;72027;47.420;9.310;2024-01-30T08:45:36;3.90;;;2.28;;
82387;SDS011;72027;47.420;9.310;2024-01-30T08:48:04;5.05;;;3.10;;
82387;SDS011;72027;47.420;9.310;2024-01-30T08:50:32;4.00;;;2.78;;
82387;SDS011;72027;47.420;9.310;2024-01-30T08:53:00;4.22;;;2.60;;
82387;SDS011;72027;47.420;9.310;2024-01-30T08:55:29;5.97;;;3.28;;
82387;SDS011;72027;47.420;9.310;2024-01-30T08:57:56;3.70;;;2.63;;
82387;SDS011;72027;47.420;9.310;2024-01-30T09:00:26;3.60;;;2.50;;
82387;SDS011;72027;47.420;9.310;2024-01-30T09:02:54;6.57;;;2.85;;
82387;SDS011;72027;47.420;9.310;2024-01-30T09:05:22;4.72;;;2.25;;
82387;SDS011;72027;47.420;9.310;2024-01-30T09:07:49;5.20;;;3.10;;
82387;SDS011;72027;47.420;9.310;2024-01-30T09:10:17;5.68;;;2.80;;
82387;SDS011;72027;47.420;9.310;2024-01-30T09:12:47;4.53;;;2.92;;
82387;SDS011;72027;47.420;9.310;2024-01-30T09:15:15;3.97;;;2.40;;
82387;SDS011;72027;47.420;9.310;2024-01-30T09:17:46;8.23;;;3.33;;
82387;SDS011;72027;47.420;9.310;2024-01-30T09:20:14;4.10;;;2.88;;
82387;SDS011;72027;47.420;9.310;2024-01-30T09:22:42;5.15;;;2.75;;
82387;SDS011;72027;47.420;9.310;2024-01-30T09:25:10;5.95;;;2.60;;
82387;SDS011;72027;47.420;9.310;2024-01-30T09:27:38;8.23;;;3.10;;
82387;SDS011;72027;47.420;9.310;2024-01-30T09:30:07;9.93;;;3.40;;
82387;SDS011;72027;47.420;9.310;2024-01-30T09:32:35;9.32;;;2.92;;
82387;SDS011;72027;47.420;9.310;2024-01-30T09:35:04;3.60;;;2.58;;
82387;SDS011;72027;47.420;9.310;2024-01-30T09:37:33;4.82;;;2.80;;
82387;SDS011;72027;47.420;9.310;2024-01-30T09:40:01;4.97;;;2.70;;
82387;SDS011;72027;47.420;9.310;2024-01-30T09:42:33;5.75;;;3.10;;
82387;SDS011;72027;47.420;9.310;2024-01-30T09:45:02;5.07;;;2.53;;
82387;SDS011;72027;47.420;9.310;2024-01-30T09:47:31;5.68;;;2.78;;
82387;SDS011;72027;47.420;9.310;2024-01-30T09:50:00;6.40;;;3.17;;
82387;SDS011;72027;47.420;9.310;2024-01-30T09:52:31;4.18;;;2.83;;
82387;SDS011;72027;47.420;9.310;2024-01-30T09:54:59;5.05;;;3.13;;
82387;SDS011;72027;47.420;9.310;2024-01-30T09:57:28;6.10;;;2.75;;
82387;SDS011;72027;47.420;9.310;2024-01-30T09:59:56;4.60;;;2.60;;
82387;SDS011;72027;47.420;9.310;2024-01-30T10:02:24;3.53;;;2.33;;
82387;SDS011;72027;47.420;9.310;2024-01-30T10:04:52;5.93;;;2.58;;
82387;SDS011;72027;47.420;9.310;2024-01-30T10:07:20;5.70;;;2.50;;
82387;SDS011;72027;47.420;9.310;2024-01-30T10:09:51;7.03;;;2.60;;
82387;SDS011;72027;47.420;9.310;2024-01-30T10:12:20;6.22;;;2.80;;
82387;SDS011;72027;47.420;9.310;2024-01-30T10:14:48;5.40;;;3.05;;
82387;SDS011;72027;47.420;9.310;2024-01-30T10:17:16;4.28;;;2.80;;
82387;SDS011;72027;47.420;9.310;2024-01-30T10:19:49;5.35;;;2.60;;
82387;SDS011;72027;47.420;9.310;2024-01-30T10:22:18;3.75;;;2.40;;
82387;SDS011;72027;47.420;9.310;2024-01-30T10:24:46;5.15;;;3.00;;
82387;SDS011;72027;47.420;9.310;2024-01-30T10:27:17;3.78;;;2.35;;
82387;SDS011;72027;47.420;9.310;2024-01-30T10:29:52;3.85;;;2.45;;
82387;SDS011;72027;47.420;9.310;2024-01-30T10:32:20;3.63;;;2.08;;
82387;SDS011;72027;47.420;9.310;2024-01-30T10:34:48;3.45;;;2.47;;
82387;SDS011;72027;47.420;9.310;2024-01-30T10:37:16;3.78;;;1.90;;
82387;SDS011;72027;47.420;9.310;2024-01-30T10:39:47;5.95;;;2.10;;
82387;SDS011;72027;47.420;9.310;2024-01-30T10:42:15;3.63;;;2.13;;
82387;SDS011;72027;47.420;9.310;2024-01-30T10:44:48;4.40;;;2.00;;
82387;SDS011;72027;47.420;9.310;2024-01-30T10:47:25;3.40;;;2.30;;
82387;SDS011;72027;47.420;9.310;2024-01-30T10:49:55;3.08;;;2.00;;
82387;SDS011;72027;47.420;9.310;2024-01-30T10:52:24;3.78;;;2.25;;
82387;SDS011;72027;47.420;9.310;2024-01-30T10:54:54;6.80;;;2.05;;
82387;SDS011;72027;47.420;9.310;2024-01-30T10:57:22;3.92;;;2.25;;
82387;SDS011;72027;47.420;9.310;2024-01-30T10:59:53;3.75;;;2.53;;
82387;SDS011;72027;47.420;9.310;2024-01-30T11:02:24;3.97;;;2.40;;
82387;SDS011;72027;47.420;9.310;2024-01-30T11:04:55;8.95;;;2.40;;
82387;SDS011;72027;47.420;9.310;2024-01-30T11:07:25;4.38;;;2.35;;
82387;SDS011;72027;47.420;9.310;2024-01-30T11:09:59;7.00;;;2.65;;
82387;SDS011;72027;47.420;9.310;2024-01-30T11:12:29;6.22;;;2.28;;
82387;SDS011;72027;47.420;9.310;2024-01-30T11:15:04;8.52;;;2.92;;
82387;SDS011;72027;47.420;9.310;2024-01-30T11:17:40;8.73;;;2.50;;
82387;SDS011;72027;47.420;9.310;2024-01-30T11:20:14;6.05;;;2.40;;
82387;SDS011;72027;47.420;9.310;2024-01-30T11:22:45;7.05;;;3.25;;
82387;SDS011;72027;47.420;9.310;2024-01-30T11:25:14;6.47;;;2.83;;
82387;SDS011;72027;47.420;9.310;2024-01-30T11:27:44;4.60;;;2.80;;
82387;SDS011;72027;47.420;9.310;2024-01-30T11:30:22;4.90;;;2.67;;
82387;SDS011;72027;47.420;9.310;2024-01-30T11:33:00;5.47;;;2.63;;
82387;SDS011;72027;47.420;9.310;2024-01-30T11:35:32;8.18;;;3.83;;
82387;SDS011;72027;47.420;9.310;2024-01-30T11:38:00;3.60;;;2.60;;
82387;SDS011;72027;47.420;9.310;2024-01-30T11:40:29;7.97;;;3.22;;
82387;SDS011;72027;47.420;9.310;2024-01-30T11:42:58;6.95;;;3.42;;
82387;SDS011;72027;47.420;9.310;2024-01-30T11:45:29;10.82;;;3.97;;
82387;SDS011;72027;47.420;9.310;2024-01-30T11:47:57;9.07;;;4.10;;
82387;SDS011;72027;47.420;9.310;2024-01-30T11:50:26;11.73;;;5.03;;
82387;SDS011;72027;47.420;9.310;2024-01-30T11:52:54;8.68;;;4.78;;
82387;SDS011;72027;47.420;9.310;2024-01-30T11:55:23;8.63;;;5.43;;
82387;SDS011;72027;47.420;9.310;2024-01-30T11:57:54;8.35;;;5.68;;
82387;SDS011;72027;47.420;9.310;2024-01-30T12:00:22;10.43;;;5.47;;
82387;SDS011;72027;47.420;9.310;2024-01-30T12:02:52;11.15;;;5.07;;
82387;SDS011;72027;47.420;9.310;2024-01-30T12:05:23;11.88;;;5.45;;
82387;SDS011;72027;47.420;9.310;2024-01-30T12:07:52;13.85;;;7.18;;
82387;SDS011;72027;47.420;9.310;2024-01-30T12:10:21;9.45;;;5.60;;
82387;SDS011;72027;47.420;9.310;2024-01-30T12:12:49;10.75;;;5.30;;
82387;SDS011;72027;47.420;9.310;2024-01-30T12:15:18;9.05;;;5.75;;
82387;SDS011;72027;47.420;9.310;2024-01-30T12:17:49;7.03;;;4.43;;
82387;SDS011;72027;47.420;9.310;2024-01-30T12:20:18;15.63;;;5.82;;
82387;SDS011;72027;47.420;9.310;2024-01-30T12:22:48;8.38;;;4.45;;
82387;SDS011;72027;47.420;9.310;2024-01-30T12:25:18;9.15;;;5.35;;
82387;SDS011;72027;47.420;9.310;2024-01-30T12:27:50;18.20;;;6.35;;
82387;SDS011;72027;47.420;9.310;2024-01-30T12:30:19;11.20;;;5.38;;
82387;SDS011;72027;47.420;9.310;2024-01-30T12:32:49;8.60;;;6.30;;
82387;SDS011;72027;47.420;9.310;2024-01-30T12:35:19;10.23;;;6.00;;
82387;SDS011;72027;47.420;9.310;2024-01-30T12:37:48;9.88;;;6.10;;
82387;SDS011;72027;47.420;9.310;2024-01-30T12:40:17;9.50;;;5.78;;
82387;SDS011;72027;47.420;9.310;2024-01-30T12:42:46;10.73;;;6.38;;
82387;SDS011;72027;47.420;9.310;2024-01-30T12:45:16;8.00;;;5.53;;
82387;SDS011;72027;47.420;9.310;2024-01-30T12:47:48;11.05;;;5.82;;
82387;SDS011;72027;47.420;9.310;2024-01-30T12:50:16;8.40;;;4.85;;
82387;SDS011;72027;47.420;9.310;2024-01-30T12:52:47;9.05;;;5.15;;
82387;SDS011;72027;47.420;9.310;2024-01-30T12:55:15;7.65;;;5.40;;
82387;SDS011;72027;47.420;9.310;2024-01-30T12:57:44;10.75;;;5.80;;
82387;SDS011;72027;47.420;9.310;2024-01-30T13:00:12;9.68;;;5.43;;
82387;SDS011;72027;47.420;9.310;2024-01-30T13:02:43;9.80;;;5.70;;
82387;SDS011;72027;47.420;9.310;2024-01-30T13:05:11;8.52;;;5.22;;
82387;SDS011;72027;47.420;9.310;2024-01-30T13:07:40;8.60;;;5.30;;
82387;SDS011;72027;47.420;9.310;2024-01-30T13:10:09;8.20;;;5.13;;
82387;SDS011;72027;47.420;9.310;2024-01-30T13:12:37;11.23;;;4.78;;
82387;SDS011;72027;47.420;9.310;2024-01-30T13:15:06;12.48;;;4.50;;
82387;SDS011;72027;47.420;9.310;2024-01-30T13:17:35;11.85;;;5.32;;
82387;SDS011;72027;47.420;9.310;2024-01-30T13:20:03;6.75;;;3.97;;
82387;SDS011;72027;47.420;9.310;2024-01-30T13:22:35;9.38;;;4.28;;
82387;SDS011;72027;47.420;9.310;2024-01-30T13:25:05;10.32;;;3.85;;
82387;SDS011;72027;47.420;9.310;2024-01-30T13:27:35;8.57;;;4.18;;
82387;SDS011;72027;47.420;9.310;2024-01-30T13:30:03;5.85;;;3.88;;
82387;SDS011;72027;47.420;9.310;2024-01-30T13:32:32;6.80;;;4.35;;
82387;SDS011;72027;47.420;9.310;2024-01-30T13:34:59;10.45;;;4.53;;
82387;SDS011;72027;47.420;9.310;2024-01-30T13:37:27;7.80;;;3.58;;
82387;SDS011;72027;47.420;9.310;2024-01-30T13:39:56;8.25;;;3.83;;
82387;SDS011;72027;47.420;9.310;2024-01-30T13:42:24;6.30;;;4.07;;
82387;SDS011;72027;47.420;9.310;2024-01-30T13:44:53;7.00;;;4.70;;
82387;SDS011;72027;47.420;9.310;2024-01-30T13:47:21;5.10;;;3.90;;
82387;SDS011;72027;47.420;9.310;2024-01-30T13:49:49;5.03;;;3.28;;
82387;SDS011;72027;47.420;9.310;2024-01-30T13:52:19;9.30;;;3.95;;
82387;SDS011;72027;47.420;9.310;2024-01-30T13:54:48;8.57;;;4.50;;
82387;SDS011;72027;47.420;9.310;2024-01-30T13:57:16;9.27;;;4.00;;
82387;SDS011;72027;47.420;9.310;2024-01-30T13:59:44;6.63;;;4.32;;
82387;SDS011;72027;47.420;9.310;2024-01-30T14:02:13;7.88;;;4.38;;
82387;SDS011;72027;47.420;9.310;2024-01-30T14:04:41;8.73;;;4.32;;
82387;SDS011;72027;47.420;9.310;2024-01-30T14:07:09;9.15;;;5.03;;
82387;SDS011;72027;47.420;9.310;2024-01-30T14:09:37;7.47;;;4.55;;
82387;SDS011;72027;47.420;9.310;2024-01-30T14:12:05;15.65;;;4.90;;
82387;SDS011;72027;47.420;9.310;2024-01-30T14:14:34;7.18;;;4.40;;
82387;SDS011;72027;47.420;9.310;2024-01-30T14:17:02;8.30;;;4.10;;
82387;SDS011;72027;47.420;9.310;2024-01-30T14:19:33;9.25;;;4.15;;
82387;SDS011;72027;47.420;9.310;2024-01-30T14:22:01;9.55;;;4.30;;
82387;SDS011;72027;47.420;9.310;2024-01-30T14:24:29;8.13;;;4.07;;
82387;SDS011;72027;47.420;9.310;2024-01-30T14:26:57;9.18;;;4.47;;
82387;SDS011;72027;47.420;9.310;2024-01-30T14:29:26;9.98;;;4.45;;
82387;SDS011;72027;47.420;9.310;2024-01-30T14:31:53;14.25;;;4.72;;
82387;SDS011;72027;47.420;9.310;2024-01-30T14:34:22;7.90;;;4.80;;
82387;SDS011;72027;47.420;9.310;2024-01-30T14:36:51;11.05;;;4.85;;
82387;SDS011;72027;47.420;9.310;2024-01-30T14:39:19;7.22;;;4.38;;
82387;SDS011;72027;47.420;9.310;2024-01-30T14:41:47;8.13;;;4.07;;
82387;SDS011;72027;47.420;9.310;2024-01-30T14:44:15;6.53;;;4.13;;
82387;SDS011;72027;47.420;9.310;2024-01-30T14:46:43;7.43;;;5.10;;
82387;SDS011;72027;47.420;9.310;2024-01-30T14:49:11;9.75;;;5.07;;
82387;SDS011;72027;47.420;9.310;2024-01-30T14:51:39;9.45;;;5.70;;
82387;SDS011;72027;47.420;9.310;2024-01-30T14:54:08;9.55;;;4.93;;
82387;SDS011;72027;47.420;9.310;2024-01-30T14:56:36;6.75;;;4.47;;